sensor_id;sensor_type;location;lat;lon;timestamp;P1;durP1;ratioP1;P2;durP2;ratioP2
75441;SDS011;64019;48.312;14.226;2023-09-12T00:00:55;15.03;;;10.43;;
75441;SDS011;64019;48.312;14.226;2023-09-12T00:03:21;18.23;;;11.20;;
75441;SDS011;64019;48.312;14.226;2023-09-12T00:05:52;15.30;;;10.80;;
75441;SDS011;64019;48.312;14.226;2023-09-12T00:08:18;14.33;;;10.67;;
75441;SDS011;64019;48.312;14.226;2023-09-12T00:10:44;18.70;;;11.57;;
75441;SDS011;64019;48.312;14.226;2023-09-12T00:13:10;15.27;;;11.00;;
75441;SDS011;64019;48.312;14.226;2023-09-12T00:15:35;18.27;;;12.10;;
75441;SDS011;64019;48.312;14.226;2023-09-12T00:18:01;18.17;;;10.73;;
75441;SDS011;64019;48.312;14.226;2023-09-12T00:20:27;20.43;;;11.17;;
75441;SDS011;64019;48.312;14.226;2023-09-12T00:22:53;16.17;;;10.77;;
75441;SDS011;64019;48.312;14.226;2023-09-12T00:25:19;15.33;;;10.73;;
75441;SDS011;64019;48.312;14.226;2023-09-12T00:27:45;17.67;;;10.87;;
75441;SDS011;64019;48.312;14.226;2023-09-12T00:30:11;16.53;;;11.33;;
75441;SDS011;64019;48.312;14.226;2023-09-12T00:32:38;23.03;;;11.77;;
75441;SDS011;64019;48.312;14.226;2023-09-12T00:35:04;17.30;;;11.83;;
75441;SDS011;64019;48.312;14.226;2023-09-12T00:37:30;18.73;;;10.77;;
75441;SDS011;64019;48.312;14.226;2023-09-12T00:39:56;16.30;;;11.07;;
75441;SDS011;64019;48.312;14.226;2023-09-12T00:42:21;19.13;;;11.90;;
75441;SDS011;64019;48.312;14.226;2023-09-12T00:44:49;17.37;;;11.50;;
75441;SDS011;64019;48.312;14.226;2023-09-12T00:47:15;17.43;;;12.23;;
75441;SDS011;64019;48.312;14.226;2023-09-12T00:49:41;16.23;;;11.43;;
75441;SDS011;64019;48.312;14.226;2023-09-12T00:52:07;19.80;;;11.97;;
75441;SDS011;64019;48.312;14.226;2023-09-12T00:54:33;22.67;;;12.40;;
75441;SDS011;64019;48.312;14.226;2023-09-12T00:56:59;16.63;;;11.13;;
75441;SDS011;64019;48.312;14.226;2023-09-12T00:59:25;19.83;;;11.33;;
75441;SDS011;64019;48.312;14.226;2023-09-12T01:01:50;19.07;;;11.50;;
75441;SDS011;64019;48.312;14.226;2023-09-12T01:04:16;24.27;;;12.57;;
75441;SDS011;64019;48.312;14.226;2023-09-12T01:06:42;19.67;;;12.77;;
75441;SDS011;64019;48.312;14.226;2023-09-12T01:09:08;17.70;;;11.40;;
75441;SDS011;64019;48.312;14.226;2023-09-12T01:11:34;19.00;;;11.40;;
75441;SDS011;64019;48.312;14.226;2023-09-12T01:13:59;21.33;;;12.13;;
75441;SDS011;64019;48.312;14.226;2023-09-12T01:16:25;17.50;;;11.63;;
75441;SDS011;64019;48.312;14.226;2023-09-12T01:18:51;19.73;;;12.23;;
75441;SDS011;64019;48.312;14.226;2023-09-12T01:24:00;20.70;;;13.07;;
75441;SDS011;64019;48.312;14.226;2023-09-12T01:26:56;20.10;;;12.43;;
75441;SDS011;64019;48.312;14.226;2023-09-12T01:29:25;22.03;;;12.50;;
75441;SDS011;64019;48.312;14.226;2023-09-12T01:31:51;20.47;;;12.00;;
75441;SDS011;64019;48.312;14.226;2023-09-12T01:34:18;19.93;;;12.53;;
75441;SDS011;64019;48.312;14.226;2023-09-12T01:36:44;20.03;;;12.33;;
75441;SDS011;64019;48.312;14.226;2023-09-12T01:39:10;18.67;;;12.13;;
75441;SDS011;64019;48.312;14.226;2023-09-12T01:41:38;17.93;;;12.13;;
75441;SDS011;64019;48.312;14.226;2023-09-12T01:44:05;18.73;;;11.60;;
75441;SDS011;64019;48.312;14.226;2023-09-12T01:46:33;24.50;;;13.03;;
75441;SDS011;64019;48.312;14.226;2023-09-12T01:49:00;22.17;;;12.93;;
75441;SDS011;64019;48.312;14.226;2023-09-12T01:51:29;19.63;;;12.83;;
75441;SDS011;64019;48.312;14.226;2023-09-12T01:53:55;20.30;;;12.30;;
75441;SDS011;64019;48.312;14.226;2023-09-12T01:56:23;18.67;;;12.43;;
75441;SDS011;64019;48.312;14.226;2023-09-12T01:58:50;20.27;;;12.37;;
75441;SDS011;64019;48.312;14.226;2023-09-12T02:01:15;21.83;;;13.33;;
75441;SDS011;64019;48.312;14.226;2023-09-12T02:03:41;25.03;;;12.93;;
75441;SDS011;64019;48.312;14.226;2023-09-12T02:06:07;21.80;;;12.30;;
75441;SDS011;64019;48.312;14.226;2023-09-12T02:08:32;18.80;;;13.00;;
75441;SDS011;64019;48.312;14.226;2023-09-12T02:10:58;23.77;;;13.77;;
75441;SDS011;64019;48.312;14.226;2023-09-12T02:13:24;20.00;;;12.07;;
75441;SDS011;64019;48.312;14.226;2023-09-12T02:15:49;18.57;;;13.03;;
75441;SDS011;64019;48.312;14.226;2023-09-12T02:18:15;20.63;;;12.80;;
75441;SDS011;64019;48.312;14.226;2023-09-12T02:20:41;23.10;;;13.10;;
75441;SDS011;64019;48.312;14.226;2023-09-12T02:23:09;19.67;;;12.90;;
75441;SDS011;64019;48.312;14.226;2023-09-12T02:25:35;17.47;;;12.63;;
75441;SDS011;64019;48.312;14.226;2023-09-12T02:28:01;20.03;;;12.87;;
75441;SDS011;64019;48.312;14.226;2023-09-12T02:30:27;17.90;;;12.97;;
75441;SDS011;64019;48.312;14.226;2023-09-12T02:32:53;19.17;;;13.03;;
75441;SDS011;64019;48.312;14.226;2023-09-12T02:35:19;20.67;;;12.03;;
75441;SDS011;64019;48.312;14.226;2023-09-12T02:37:44;20.43;;;12.77;;
75441;SDS011;64019;48.312;14.226;2023-09-12T02:40:10;21.17;;;12.53;;
75441;SDS011;64019;48.312;14.226;2023-09-12T02:42:36;21.77;;;12.43;;
75441;SDS011;64019;48.312;14.226;2023-09-12T02:45:03;23.50;;;13.00;;
75441;SDS011;64019;48.312;14.226;2023-09-12T02:47:29;26.30;;;12.03;;
75441;SDS011;64019;48.312;14.226;2023-09-12T02:49:55;19.87;;;12.87;;
75441;SDS011;64019;48.312;14.226;2023-09-12T02:52:20;20.17;;;12.30;;
75441;SDS011;64019;48.312;14.226;2023-09-12T02:54:46;23.10;;;12.60;;
75441;SDS011;64019;48.312;14.226;2023-09-12T02:57:11;22.43;;;13.00;;
75441;SDS011;64019;48.312;14.226;2023-09-12T02:59:37;17.13;;;12.03;;
75441;SDS011;64019;48.312;14.226;2023-09-12T03:02:03;21.40;;;13.30;;
75441;SDS011;64019;48.312;14.226;2023-09-12T03:04:29;22.47;;;13.43;;
75441;SDS011;64019;48.312;14.226;2023-09-12T03:06:54;19.90;;;13.07;;
75441;SDS011;64019;48.312;14.226;2023-09-12T03:09:20;21.87;;;13.27;;
75441;SDS011;64019;48.312;14.226;2023-09-12T03:11:47;19.57;;;13.47;;
75441;SDS011;64019;48.312;14.226;2023-09-12T03:14:14;21.83;;;13.63;;
75441;SDS011;64019;48.312;14.226;2023-09-12T03:16:40;21.47;;;14.67;;
75441;SDS011;64019;48.312;14.226;2023-09-12T03:19:05;23.80;;;14.07;;
75441;SDS011;64019;48.312;14.226;2023-09-12T03:21:31;20.67;;;13.63;;
75441;SDS011;64019;48.312;14.226;2023-09-12T03:23:57;24.20;;;14.40;;
75441;SDS011;64019;48.312;14.226;2023-09-12T03:26:22;19.50;;;13.63;;
75441;SDS011;64019;48.312;14.226;2023-09-12T03:28:49;21.93;;;14.23;;
75441;SDS011;64019;48.312;14.226;2023-09-12T03:31:17;24.37;;;15.83;;
75441;SDS011;64019;48.312;14.226;2023-09-12T03:33:43;24.30;;;14.17;;
75441;SDS011;64019;48.312;14.226;2023-09-12T03:36:15;23.57;;;14.60;;
75441;SDS011;64019;48.312;14.226;2023-09-12T03:38:42;22.93;;;13.80;;
75441;SDS011;64019;48.312;14.226;2023-09-12T03:41:08;24.60;;;14.50;;
75441;SDS011;64019;48.312;14.226;2023-09-12T03:43:33;25.10;;;14.57;;
75441;SDS011;64019;48.312;14.226;2023-09-12T03:45:59;21.73;;;13.63;;
75441;SDS011;64019;48.312;14.226;2023-09-12T03:48:25;23.83;;;13.67;;
75441;SDS011;64019;48.312;14.226;2023-09-12T03:50:50;21.77;;;13.60;;
75441;SDS011;64019;48.312;14.226;2023-09-12T03:53:16;23.97;;;15.93;;
75441;SDS011;64019;48.312;14.226;2023-09-12T03:55:42;22.33;;;14.47;;
75441;SDS011;64019;48.312;14.226;2023-09-12T03:58:08;22.00;;;14.80;;
75441;SDS011;64019;48.312;14.226;2023-09-12T04:00:34;24.77;;;14.23;;
75441;SDS011;64019;48.312;14.226;2023-09-12T04:03:00;25.53;;;14.27;;
75441;SDS011;64019;48.312;14.226;2023-09-12T04:05:26;22.77;;;14.13;;
75441;SDS011;64019;48.312;14.226;2023-09-12T04:07:52;27.50;;;15.30;;
75441;SDS011;64019;48.312;14.226;2023-09-12T04:10:19;27.57;;;14.13;;
75441;SDS011;64019;48.312;14.226;2023-09-12T04:12:45;24.30;;;14.63;;
75441;SDS011;64019;48.312;14.226;2023-09-12T04:15:11;20.33;;;14.17;;
75441;SDS011;64019;48.312;14.226;2023-09-12T04:38:09;22.70;;;14.03;;
75441;SDS011;64019;48.312;14.226;2023-09-12T04:44:40;23.93;;;14.33;;
75441;SDS011;64019;48.312;14.226;2023-09-12T04:47:58;21.30;;;14.43;;
75441;SDS011;64019;48.312;14.226;2023-09-12T04:50:33;24.70;;;14.20;;
75441;SDS011;64019;48.312;14.226;2023-09-12T04:53:13;22.60;;;15.33;;
75441;SDS011;64019;48.312;14.226;2023-09-12T04:55:46;23.43;;;15.03;;
75441;SDS011;64019;48.312;14.226;2023-09-12T04:58:16;25.13;;;15.03;;
75441;SDS011;64019;48.312;14.226;2023-09-12T05:00:43;21.93;;;14.60;;
75441;SDS011;64019;48.312;14.226;2023-09-12T05:03:11;20.77;;;14.37;;
75441;SDS011;64019;48.312;14.226;2023-09-12T05:05:37;22.43;;;15.30;;
75441;SDS011;64019;48.312;14.226;2023-09-12T05:08:05;20.30;;;13.47;;
75441;SDS011;64019;48.312;14.226;2023-09-12T05:10:35;25.17;;;15.33;;
75441;SDS011;64019;48.312;14.226;2023-09-12T05:13:07;24.87;;;14.70;;
75441;SDS011;64019;48.312;14.226;2023-09-12T05:15:33;19.47;;;13.33;;
75441;SDS011;64019;48.312;14.226;2023-09-12T05:17:59;22.43;;;14.43;;
75441;SDS011;64019;48.312;14.226;2023-09-12T05:20:24;21.23;;;13.33;;
75441;SDS011;64019;48.312;14.226;2023-09-12T05:22:50;22.13;;;14.27;;
75441;SDS011;64019;48.312;14.226;2023-09-12T05:25:15;21.83;;;13.40;;
75441;SDS011;64019;48.312;14.226;2023-09-12T05:27:41;19.63;;;13.43;;
75441;SDS011;64019;48.312;14.226;2023-09-12T05:30:07;21.57;;;13.13;;
75441;SDS011;64019;48.312;14.226;2023-09-12T05:32:38;24.50;;;12.93;;
75441;SDS011;64019;48.312;14.226;2023-09-12T05:35:18;20.73;;;12.17;;
75441;SDS011;64019;48.312;14.226;2023-09-12T05:37:57;18.20;;;12.57;;
75441;SDS011;64019;48.312;14.226;2023-09-12T05:40:34;18.07;;;12.87;;
75441;SDS011;64019;48.312;14.226;2023-09-12T05:42:59;21.77;;;13.07;;
75441;SDS011;64019;48.312;14.226;2023-09-12T05:45:25;17.23;;;12.13;;
75441;SDS011;64019;48.312;14.226;2023-09-12T05:47:51;21.57;;;11.80;;
75441;SDS011;64019;48.312;14.226;2023-09-12T05:50:17;22.50;;;14.50;;
75441;SDS011;64019;48.312;14.226;2023-09-12T05:52:42;20.27;;;13.10;;
75441;SDS011;64019;48.312;14.226;2023-09-12T05:55:08;19.43;;;13.03;;
75441;SDS011;64019;48.312;14.226;2023-09-12T05:57:34;18.27;;;12.80;;
75441;SDS011;64019;48.312;14.226;2023-09-12T05:59:59;20.43;;;13.23;;
75441;SDS011;64019;48.312;14.226;2023-09-12T06:02:26;18.70;;;13.03;;
75441;SDS011;64019;48.312;14.226;2023-09-12T06:04:52;19.90;;;13.00;;
75441;SDS011;64019;48.312;14.226;2023-09-12T06:07:18;23.73;;;13.73;;
75441;SDS011;64019;48.312;14.226;2023-09-12T06:09:44;20.47;;;13.03;;
75441;SDS011;64019;48.312;14.226;2023-09-12T06:12:10;21.13;;;13.57;;
75441;SDS011;64019;48.312;14.226;2023-09-12T06:14:36;19.57;;;13.57;;
75441;SDS011;64019;48.312;14.226;2023-09-12T06:17:01;61.10;;;17.57;;
75441;SDS011;64019;48.312;14.226;2023-09-12T06:19:27;27.00;;;14.47;;
75441;SDS011;64019;48.312;14.226;2023-09-12T06:21:52;21.23;;;14.60;;
75441;SDS011;64019;48.312;14.226;2023-09-12T06:24:20;21.37;;;13.30;;
75441;SDS011;64019;48.312;14.226;2023-09-12T06:26:46;21.03;;;13.90;;
75441;SDS011;64019;48.312;14.226;2023-09-12T06:29:13;21.30;;;14.17;;
75441;SDS011;64019;48.312;14.226;2023-09-12T06:31:39;19.50;;;13.90;;
75441;SDS011;64019;48.312;14.226;2023-09-12T06:34:08;19.20;;;13.23;;
75441;SDS011;64019;48.312;14.226;2023-09-12T06:36:34;20.20;;;14.07;;
75441;SDS011;64019;48.312;14.226;2023-09-12T06:39:00;22.80;;;13.60;;
75441;SDS011;64019;48.312;14.226;2023-09-12T06:41:26;21.47;;;14.77;;
75441;SDS011;64019;48.312;14.226;2023-09-12T06:43:52;23.27;;;14.40;;
75441;SDS011;64019;48.312;14.226;2023-09-12T06:46:18;18.83;;;13.17;;
75441;SDS011;64019;48.312;14.226;2023-09-12T06:48:44;19.03;;;13.53;;
75441;SDS011;64019;48.312;14.226;2023-09-12T06:51:11;21.73;;;14.00;;
75441;SDS011;64019;48.312;14.226;2023-09-12T06:53:37;23.10;;;14.30;;
75441;SDS011;64019;48.312;14.226;2023-09-12T06:56:06;18.70;;;13.10;;
75441;SDS011;64019;48.312;14.226;2023-09-12T06:58:31;20.17;;;13.30;;
75441;SDS011;64019;48.312;14.226;2023-09-12T07:01:01;21.83;;;14.03;;
75441;SDS011;64019;48.312;14.226;2023-09-12T07:03:28;23.10;;;14.93;;
75441;SDS011;64019;48.312;14.226;2023-09-12T07:05:53;23.23;;;15.70;;
75441;SDS011;64019;48.312;14.226;2023-09-12T07:11:43;23.93;;;14.47;;
75441;SDS011;64019;48.312;14.226;2023-09-12T07:15:04;21.50;;;14.87;;
75441;SDS011;64019;48.312;14.226;2023-09-12T07:18:08;23.13;;;14.53;;
75441;SDS011;64019;48.312;14.226;2023-09-12T07:20:56;25.13;;;16.43;;
75441;SDS011;64019;48.312;14.226;2023-09-12T07:23:22;23.90;;;16.77;;
75441;SDS011;64019;48.312;14.226;2023-09-12T07:25:48;34.03;;;20.13;;
75441;SDS011;64019;48.312;14.226;2023-09-12T07:28:14;28.60;;;19.90;;
75441;SDS011;64019;48.312;14.226;2023-09-12T07:30:40;28.40;;;18.90;;
75441;SDS011;64019;48.312;14.226;2023-09-12T07:33:06;30.03;;;19.50;;
75441;SDS011;64019;48.312;14.226;2023-09-12T07:35:31;30.67;;;19.93;;
75441;SDS011;64019;48.312;14.226;2023-09-12T07:38:02;31.70;;;20.20;;
75441;SDS011;64019;48.312;14.226;2023-09-12T07:41:15;27.17;;;18.03;;
75441;SDS011;64019;48.312;14.226;2023-09-12T07:43:58;30.93;;;20.07;;
75441;SDS011;64019;48.312;14.226;2023-09-12T07:46:26;30.33;;;19.47;;
75441;SDS011;64019;48.312;14.226;2023-09-12T07:48:51;33.63;;;20.00;;
75441;SDS011;64019;48.312;14.226;2023-09-12T07:51:17;33.37;;;20.87;;
75441;SDS011;64019;48.312;14.226;2023-09-12T07:53:43;34.53;;;20.07;;
75441;SDS011;64019;48.312;14.226;2023-09-12T07:56:09;29.10;;;20.10;;
75441;SDS011;64019;48.312;14.226;2023-09-12T07:58:36;34.60;;;21.03;;
75441;SDS011;64019;48.312;14.226;2023-09-12T08:01:08;32.57;;;18.20;;
75441;SDS011;64019;48.312;14.226;2023-09-12T08:03:35;25.87;;;17.33;;
75441;SDS011;64019;48.312;14.226;2023-09-12T08:06:01;29.70;;;18.77;;
75441;SDS011;64019;48.312;14.226;2023-09-12T08:08:27;25.07;;;16.70;;
75441;SDS011;64019;48.312;14.226;2023-09-12T08:10:53;24.77;;;16.07;;
75441;SDS011;64019;48.312;14.226;2023-09-12T08:13:19;23.97;;;16.77;;
75441;SDS011;64019;48.312;14.226;2023-09-12T08:15:45;25.43;;;16.00;;
75441;SDS011;64019;48.312;14.226;2023-09-12T08:18:10;25.17;;;16.63;;
75441;SDS011;64019;48.312;14.226;2023-09-12T08:20:36;21.37;;;15.20;;
75441;SDS011;64019;48.312;14.226;2023-09-12T08:23:03;21.77;;;14.50;;
75441;SDS011;64019;48.312;14.226;2023-09-12T08:25:29;25.67;;;15.37;;
75441;SDS011;64019;48.312;14.226;2023-09-12T08:27:54;20.23;;;14.20;;
75441;SDS011;64019;48.312;14.226;2023-09-12T08:30:20;20.00;;;13.03;;
75441;SDS011;64019;48.312;14.226;2023-09-12T08:32:46;24.43;;;13.93;;
75441;SDS011;64019;48.312;14.226;2023-09-12T08:35:12;24.07;;;13.20;;
75441;SDS011;64019;48.312;14.226;2023-09-12T08:37:38;18.53;;;14.00;;
75441;SDS011;64019;48.312;14.226;2023-09-12T08:40:06;18.43;;;12.30;;
75441;SDS011;64019;48.312;14.226;2023-09-12T08:42:42;16.43;;;12.77;;
75441;SDS011;64019;48.312;14.226;2023-09-12T08:45:13;19.53;;;13.53;;
75441;SDS011;64019;48.312;14.226;2023-09-12T08:47:49;21.17;;;13.13;;
75441;SDS011;64019;48.312;14.226;2023-09-12T08:50:15;20.40;;;13.70;;
75441;SDS011;64019;48.312;14.226;2023-09-12T08:52:42;16.03;;;12.87;;
75441;SDS011;64019;48.312;14.226;2023-09-12T08:55:09;19.20;;;13.07;;
75441;SDS011;64019;48.312;14.226;2023-09-12T08:57:36;17.40;;;12.77;;
75441;SDS011;64019;48.312;14.226;2023-09-12T09:00:04;20.83;;;13.20;;
75441;SDS011;64019;48.312;14.226;2023-09-12T09:02:36;17.87;;;13.43;;
75441;SDS011;64019;48.312;14.226;2023-09-12T09:05:03;18.23;;;13.10;;
75441;SDS011;64019;48.312;14.226;2023-09-12T09:07:32;19.47;;;13.17;;
75441;SDS011;64019;48.312;14.226;2023-09-12T09:10:07;19.60;;;13.77;;
75441;SDS011;64019;48.312;14.226;2023-09-12T09:12:39;17.47;;;13.97;;
75441;SDS011;64019;48.312;14.226;2023-09-12T09:22:05;16.60;;;12.43;;
75441;SDS011;64019;48.312;14.226;2023-09-12T09:24:31;15.40;;;12.17;;
75441;SDS011;64019;48.312;14.226;2023-09-12T09:26:57;21.23;;;13.80;;
75441;SDS011;64019;48.312;14.226;2023-09-12T09:29:25;18.20;;;12.97;;
75441;SDS011;64019;48.312;14.226;2023-09-12T09:31:51;19.20;;;12.03;;
75441;SDS011;64019;48.312;14.226;2023-09-12T09:34:18;22.00;;;13.60;;
75441;SDS011;64019;48.312;14.226;2023-09-12T09:36:48;17.20;;;12.93;;
75441;SDS011;64019;48.312;14.226;2023-09-12T09:39:22;19.23;;;13.77;;
75441;SDS011;64019;48.312;14.226;2023-09-12T09:41:50;19.17;;;13.83;;
75441;SDS011;64019;48.312;14.226;2023-09-12T09:44:17;20.87;;;12.30;;
75441;SDS011;64019;48.312;14.226;2023-09-12T09:46:44;17.80;;;12.97;;
75441;SDS011;64019;48.312;14.226;2023-09-12T09:49:11;17.10;;;12.17;;
75441;SDS011;64019;48.312;14.226;2023-09-12T09:51:42;18.27;;;12.93;;
75441;SDS011;64019;48.312;14.226;2023-09-12T09:54:09;18.27;;;12.10;;
75441;SDS011;64019;48.312;14.226;2023-09-12T09:56:47;21.07;;;11.90;;
75441;SDS011;64019;48.312;14.226;2023-09-12T09:59:14;14.90;;;11.87;;
75441;SDS011;64019;48.312;14.226;2023-09-12T10:01:44;14.50;;;11.53;;
75441;SDS011;64019;48.312;14.226;2023-09-12T10:04:11;14.57;;;10.60;;
75441;SDS011;64019;48.312;14.226;2023-09-12T10:06:37;15.50;;;10.57;;
75441;SDS011;64019;48.312;14.226;2023-09-12T10:09:09;18.53;;;10.80;;
75441;SDS011;64019;48.312;14.226;2023-09-12T10:11:35;16.17;;;10.50;;
75441;SDS011;64019;48.312;14.226;2023-09-12T10:14:04;12.90;;;10.70;;
75441;SDS011;64019;48.312;14.226;2023-09-12T10:16:31;13.90;;;10.37;;
75441;SDS011;64019;48.312;14.226;2023-09-12T10:24:38;13.90;;;11.17;;
75441;SDS011;64019;48.312;14.226;2023-09-12T10:27:05;14.63;;;11.03;;
75441;SDS011;64019;48.312;14.226;2023-09-12T10:29:31;14.90;;;11.00;;
75441;SDS011;64019;48.312;14.226;2023-09-12T10:31:57;14.00;;;10.30;;
75441;SDS011;64019;48.312;14.226;2023-09-12T10:34:24;13.43;;;10.60;;
75441;SDS011;64019;48.312;14.226;2023-09-12T10:36:51;11.77;;;10.17;;
75441;SDS011;64019;48.312;14.226;2023-09-12T10:39:17;12.57;;;10.33;;
75441;SDS011;64019;48.312;14.226;2023-09-12T10:41:44;12.27;;;10.07;;
75441;SDS011;64019;48.312;14.226;2023-09-12T10:44:15;11.57;;;9.43;;
75441;SDS011;64019;48.312;14.226;2023-09-12T10:46:42;15.60;;;9.37;;
75441;SDS011;64019;48.312;14.226;2023-09-12T10:49:10;15.80;;;10.00;;
75441;SDS011;64019;48.312;14.226;2023-09-12T10:51:38;16.43;;;10.00;;
75441;SDS011;64019;48.312;14.226;2023-09-12T10:54:07;18.13;;;9.97;;
75441;SDS011;64019;48.312;14.226;2023-09-12T10:56:34;11.07;;;9.60;;
75441;SDS011;64019;48.312;14.226;2023-09-12T11:02:28;13.23;;;10.40;;
75441;SDS011;64019;48.312;14.226;2023-09-12T11:05:03;15.90;;;10.67;;
75441;SDS011;64019;48.312;14.226;2023-09-12T11:12:41;12.97;;;9.90;;
75441;SDS011;64019;48.312;14.226;2023-09-12T11:15:08;13.97;;;10.10;;
75441;SDS011;64019;48.312;14.226;2023-09-12T11:17:38;13.50;;;10.20;;
75441;SDS011;64019;48.312;14.226;2023-09-12T11:20:05;14.27;;;10.30;;
75441;SDS011;64019;48.312;14.226;2023-09-12T11:25:15;12.93;;;9.43;;
75441;SDS011;64019;48.312;14.226;2023-09-12T11:30:26;13.00;;;9.47;;
75441;SDS011;64019;48.312;14.226;2023-09-12T11:32:56;11.57;;;8.80;;
75441;SDS011;64019;48.312;14.226;2023-09-12T11:35:23;11.07;;;8.57;;
75441;SDS011;64019;48.312;14.226;2023-09-12T11:37:50;13.23;;;8.83;;
75441;SDS011;64019;48.312;14.226;2023-09-12T11:40:24;11.07;;;9.00;;
75441;SDS011;64019;48.312;14.226;2023-09-12T11:42:58;12.13;;;8.77;;
75441;SDS011;64019;48.312;14.226;2023-09-12T11:45:24;11.73;;;9.67;;
75441;SDS011;64019;48.312;14.226;2023-09-12T11:47:50;9.93;;;7.40;;
75441;SDS011;64019;48.312;14.226;2023-09-12T11:50:28;11.03;;;9.00;;
75441;SDS011;64019;48.312;14.226;2023-09-12T11:58:07;9.20;;;8.20;;
75441;SDS011;64019;48.312;14.226;2023-09-12T12:00:33;10.20;;;7.97;;
75441;SDS011;64019;48.312;14.226;2023-09-12T12:02:59;13.50;;;8.43;;
75441;SDS011;64019;48.312;14.226;2023-09-12T12:05:24;13.30;;;8.37;;
75441;SDS011;64019;48.312;14.226;2023-09-12T12:07:50;10.13;;;8.10;;
75441;SDS011;64019;48.312;14.226;2023-09-12T12:10:16;11.63;;;7.90;;
75441;SDS011;64019;48.312;14.226;2023-09-12T12:12:46;9.87;;;7.60;;
75441;SDS011;64019;48.312;14.226;2023-09-12T12:15:12;11.60;;;8.60;;
75441;SDS011;64019;48.312;14.226;2023-09-12T12:17:40;10.43;;;7.97;;
75441;SDS011;64019;48.312;14.226;2023-09-12T12:20:09;10.47;;;8.23;;
75441;SDS011;64019;48.312;14.226;2023-09-12T12:22:39;8.37;;;7.57;;
75441;SDS011;64019;48.312;14.226;2023-09-12T12:25:08;10.13;;;8.30;;
75441;SDS011;64019;48.312;14.226;2023-09-12T12:27:36;10.47;;;8.23;;
75441;SDS011;64019;48.312;14.226;2023-09-12T12:30:04;9.40;;;7.80;;
75441;SDS011;64019;48.312;14.226;2023-09-12T12:32:31;9.37;;;8.00;;
75441;SDS011;64019;48.312;14.226;2023-09-12T12:34:56;13.37;;;8.03;;
75441;SDS011;64019;48.312;14.226;2023-09-12T12:37:27;9.33;;;7.87;;
75441;SDS011;64019;48.312;14.226;2023-09-12T12:39:55;9.97;;;7.90;;
75441;SDS011;64019;48.312;14.226;2023-09-12T12:42:21;9.23;;;8.20;;
75441;SDS011;64019;48.312;14.226;2023-09-12T12:44:52;10.27;;;7.50;;
75441;SDS011;64019;48.312;14.226;2023-09-12T12:47:18;10.17;;;7.60;;
75441;SDS011;64019;48.312;14.226;2023-09-12T12:49:49;9.90;;;8.00;;
75441;SDS011;64019;48.312;14.226;2023-09-12T12:52:24;10.33;;;7.17;;
75441;SDS011;64019;48.312;14.226;2023-09-12T12:54:50;10.17;;;8.27;;
75441;SDS011;64019;48.312;14.226;2023-09-12T12:57:20;10.43;;;7.93;;
75441;SDS011;64019;48.312;14.226;2023-09-12T12:59:47;10.30;;;7.80;;
75441;SDS011;64019;48.312;14.226;2023-09-12T13:02:13;9.07;;;7.20;;
75441;SDS011;64019;48.312;14.226;2023-09-12T13:04:39;8.60;;;7.30;;
75441;SDS011;64019;48.312;14.226;2023-09-12T13:07:05;8.90;;;7.87;;
75441;SDS011;64019;48.312;14.226;2023-09-12T13:09:31;9.03;;;7.80;;
75441;SDS011;64019;48.312;14.226;2023-09-12T13:11:58;8.60;;;7.63;;
75441;SDS011;64019;48.312;14.226;2023-09-12T13:14:24;8.17;;;7.33;;
75441;SDS011;64019;48.312;14.226;2023-09-12T13:16:55;10.07;;;8.13;;
75441;SDS011;64019;48.312;14.226;2023-09-12T13:19:22;9.27;;;8.07;;
75441;SDS011;64019;48.312;14.226;2023-09-12T13:21:48;11.47;;;7.90;;
75441;SDS011;64019;48.312;14.226;2023-09-12T13:24:14;9.67;;;7.87;;
75441;SDS011;64019;48.312;14.226;2023-09-12T13:26:39;8.93;;;7.20;;
75441;SDS011;64019;48.312;14.226;2023-09-12T13:29:05;9.50;;;7.10;;
75441;SDS011;64019;48.312;14.226;2023-09-12T13:31:31;14.73;;;8.18;;
75441;SDS011;64019;48.312;14.226;2023-09-12T13:33:57;10.17;;;8.43;;
75441;SDS011;64019;48.312;14.226;2023-09-12T13:36:22;10.67;;;7.80;;
75441;SDS011;64019;48.312;14.226;2023-09-12T13:38:48;9.60;;;7.57;;
75441;SDS011;64019;48.312;14.226;2023-09-12T13:41:16;9.07;;;8.03;;
75441;SDS011;64019;48.312;14.226;2023-09-12T13:43:43;8.57;;;7.67;;
75441;SDS011;64019;48.312;14.226;2023-09-12T13:46:12;10.37;;;8.73;;
75441;SDS011;64019;48.312;14.226;2023-09-12T13:48:38;13.57;;;8.27;;
75441;SDS011;64019;48.312;14.226;2023-09-12T13:51:03;9.43;;;7.80;;
75441;SDS011;64019;48.312;14.226;2023-09-12T13:53:29;8.50;;;7.60;;
75441;SDS011;64019;48.312;14.226;2023-09-12T13:55:56;10.23;;;8.60;;
75441;SDS011;64019;48.312;14.226;2023-09-12T13:58:23;11.07;;;8.63;;
75441;SDS011;64019;48.312;14.226;2023-09-12T14:00:49;11.40;;;8.70;;
75441;SDS011;64019;48.312;14.226;2023-09-12T14:03:14;10.00;;;8.70;;
75441;SDS011;64019;48.312;14.226;2023-09-12T14:05:40;9.77;;;8.67;;
75441;SDS011;64019;48.312;14.226;2023-09-12T14:08:06;10.27;;;9.00;;
75441;SDS011;64019;48.312;14.226;2023-09-12T14:10:32;12.77;;;9.33;;
75441;SDS011;64019;48.312;14.226;2023-09-12T14:12:57;9.87;;;8.43;;
75441;SDS011;64019;48.312;14.226;2023-09-12T14:15:23;14.40;;;9.60;;
75441;SDS011;64019;48.312;14.226;2023-09-12T14:17:49;12.17;;;8.83;;
75441;SDS011;64019;48.312;14.226;2023-09-12T14:20:14;12.23;;;9.63;;
75441;SDS011;64019;48.312;14.226;2023-09-12T14:22:40;13.53;;;9.80;;
75441;SDS011;64019;48.312;14.226;2023-09-12T14:25:08;13.13;;;10.77;;
75441;SDS011;64019;48.312;14.226;2023-09-12T14:28:31;12.80;;;9.70;;
75441;SDS011;64019;48.312;14.226;2023-09-12T14:31:11;11.80;;;9.73;;
75441;SDS011;64019;48.312;14.226;2023-09-12T14:33:41;15.43;;;9.20;;
75441;SDS011;64019;48.312;14.226;2023-09-12T14:36:07;11.83;;;8.87;;
75441;SDS011;64019;48.312;14.226;2023-09-12T14:38:34;11.00;;;9.03;;
75441;SDS011;64019;48.312;14.226;2023-09-12T14:41:00;11.57;;;9.80;;
75441;SDS011;64019;48.312;14.226;2023-09-12T14:43:26;13.60;;;10.60;;
75441;SDS011;64019;48.312;14.226;2023-09-12T14:45:53;12.27;;;10.50;;
75441;SDS011;64019;48.312;14.226;2023-09-12T14:48:19;11.87;;;10.23;;
75441;SDS011;64019;48.312;14.226;2023-09-12T14:50:45;14.33;;;9.63;;
75441;SDS011;64019;48.312;14.226;2023-09-12T14:53:14;11.57;;;9.77;;
75441;SDS011;64019;48.312;14.226;2023-09-12T14:55:40;11.30;;;9.03;;
75441;SDS011;64019;48.312;14.226;2023-09-12T14:58:08;12.97;;;9.50;;
75441;SDS011;64019;48.312;14.226;2023-09-12T15:00:34;11.13;;;9.93;;
75441;SDS011;64019;48.312;14.226;2023-09-12T15:03:01;11.63;;;9.33;;
75441;SDS011;64019;48.312;14.226;2023-09-12T15:05:27;11.33;;;10.00;;
75441;SDS011;64019;48.312;14.226;2023-09-12T15:07:52;12.00;;;9.23;;
75441;SDS011;64019;48.312;14.226;2023-09-12T15:10:18;12.33;;;10.27;;
75441;SDS011;64019;48.312;14.226;2023-09-12T15:12:44;12.07;;;9.77;;
75441;SDS011;64019;48.312;14.226;2023-09-12T15:15:10;12.10;;;9.63;;
75441;SDS011;64019;48.312;14.226;2023-09-12T15:17:36;12.30;;;9.83;;
75441;SDS011;64019;48.312;14.226;2023-09-12T15:20:01;12.33;;;9.77;;